sensor_id;sensor_type;location;lat;lon;timestamp;temperature;humidity
13982;DHT22;7065;50.880;5.502;2023-12-04T00:01:13;1.80;99.90
13982;DHT22;7065;50.880;5.502;2023-12-04T00:03:39;1.80;99.90
13982;DHT22;7065;50.880;5.502;2023-12-04T00:06:04;1.80;99.90
13982;DHT22;7065;50.880;5.502;2023-12-04T00:08:30;1.80;99.90
13982;DHT22;7065;50.880;5.502;2023-12-04T00:10:57;1.80;99.90
13982;DHT22;7065;50.880;5.502;2023-12-04T00:13:24;1.80;99.90
13982;DHT22;7065;50.880;5.502;2023-12-04T00:15:52;1.80;99.90
13982;DHT22;7065;50.880;5.502;2023-12-04T00:18:17;1.80;99.90
13982;DHT22;7065;50.880;5.502;2023-12-04T00:20:43;1.80;99.90
13982;DHT22;7065;50.880;5.502;2023-12-04T00:23:08;1.80;99.90
13982;DHT22;7065;50.880;5.502;2023-12-04T00:25:34;1.90;99.90
13982;DHT22;7065;50.880;5.502;2023-12-04T00:28:00;1.90;99.90
13982;DHT22;7065;50.880;5.502;2023-12-04T00:30:25;1.90;99.90
13982;DHT22;7065;50.880;5.502;2023-12-04T00:32:51;1.90;99.90
13982;DHT22;7065;50.880;5.502;2023-12-04T00:35:16;1.90;99.90
13982;DHT22;7065;50.880;5.502;2023-12-04T00:37:42;1.80;99.90
13982;DHT22;7065;50.880;5.502;2023-12-04T00:40:11;1.80;99.90
13982;DHT22;7065;50.880;5.502;2023-12-04T00:42:40;1.90;99.90
13982;DHT22;7065;50.880;5.502;2023-12-04T00:45:09;1.90;99.90
13982;DHT22;7065;50.880;5.502;2023-12-04T00:47:35;1.80;99.90
13982;DHT22;7065;50.880;5.502;2023-12-04T00:50:01;1.80;99.90
13982;DHT22;7065;50.880;5.502;2023-12-04T00:52:27;1.80;99.90
13982;DHT22;7065;50.880;5.502;2023-12-04T00:54:53;1.80;99.90
13982;DHT22;7065;50.880;5.502;2023-12-04T00:57:19;1.80;99.90
13982;DHT22;7065;50.880;5.502;2023-12-04T00:59:44;1.70;99.90
13982;DHT22;7065;50.880;5.502;2023-12-04T01:02:10;1.70;99.90
13982;DHT22;7065;50.880;5.502;2023-12-04T01:04:36;1.70;99.90
13982;DHT22;7065;50.880;5.502;2023-12-04T01:07:05;1.60;99.90
13982;DHT22;7065;50.880;5.502;2023-12-04T01:09:30;1.60;99.90
13982;DHT22;7065;50.880;5.502;2023-12-04T01:11:56;1.50;99.90
13982;DHT22;7065;50.880;5.502;2023-12-04T01:14:22;1.50;99.90
13982;DHT22;7065;50.880;5.502;2023-12-04T01:16:47;1.50;99.90
13982;DHT22;7065;50.880;5.502;2023-12-04T01:19:14;1.40;99.90
13982;DHT22;7065;50.880;5.502;2023-12-04T01:21:39;1.40;99.90
13982;DHT22;7065;50.880;5.502;2023-12-04T01:24:05;1.40;99.90
13982;DHT22;7065;50.880;5.502;2023-12-04T01:26:31;1.30;99.90
13982;DHT22;7065;50.880;5.502;2023-12-04T01:28:56;1.30;99.90
13982;DHT22;7065;50.880;5.502;2023-12-04T01:31:23;1.20;99.90
13982;DHT22;7065;50.880;5.502;2023-12-04T01:33:48;1.30;99.90
13982;DHT22;7065;50.880;5.502;2023-12-04T01:36:14;1.20;99.90
13982;DHT22;7065;50.880;5.502;2023-12-04T01:38:39;1.20;99.90
13982;DHT22;7065;50.880;5.502;2023-12-04T01:41:05;1.10;99.90
13982;DHT22;7065;50.880;5.502;2023-12-04T01:43:31;1.10;99.90
13982;DHT22;7065;50.880;5.502;2023-12-04T01:45:57;1.10;99.90
13982;DHT22;7065;50.880;5.502;2023-12-04T01:48:25;1.00;99.90
13982;DHT22;7065;50.880;5.502;2023-12-04T01:50:52;1.00;99.90
13982;DHT22;7065;50.880;5.502;2023-12-04T01:53:18;1.10;99.90
13982;DHT22;7065;50.880;5.502;2023-12-04T01:55:44;1.00;99.90
13982;DHT22;7065;50.880;5.502;2023-12-04T01:58:11;1.00;99.90
13982;DHT22;7065;50.880;5.502;2023-12-04T02:00:38;1.00;99.90
13982;DHT22;7065;50.880;5.502;2023-12-04T02:03:04;1.00;99.90
13982;DHT22;7065;50.880;5.502;2023-12-04T02:05:31;1.00;99.90
13982;DHT22;7065;50.880;5.502;2023-12-04T02:07:57;1.00;99.90
13982;DHT22;7065;50.880;5.502;2023-12-04T02:10:23;1.00;99.90
13982;DHT22;7065;50.880;5.502;2023-12-04T02:12:50;1.00;99.90
13982;DHT22;7065;50.880;5.502;2023-12-04T02:15:16;1.00;99.90
13982;DHT22;7065;50.880;5.502;2023-12-04T02:17:43;1.00;99.90
13982;DHT22;7065;50.880;5.502;2023-12-04T02:20:12;1.00;99.90
13982;DHT22;7065;50.880;5.502;2023-12-04T02:22:38;1.10;99.90
13982;DHT22;7065;50.880;5.502;2023-12-04T02:25:04;1.20;99.90
13982;DHT22;7065;50.880;5.502;2023-12-04T02:27:50;1.30;99.90
13982;DHT22;7065;50.880;5.502;2023-12-04T02:30:18;1.30;99.90
13982;DHT22;7065;50.880;5.502;2023-12-04T02:32:46;1.30;99.90
13982;DHT22;7065;50.880;5.502;2023-12-04T02:35:14;1.40;99.90
13982;DHT22;7065;50.880;5.502;2023-12-04T02:37:45;1.30;99.90
13982;DHT22;7065;50.880;5.502;2023-12-04T02:40:13;1.40;99.90
13982;DHT22;7065;50.880;5.502;2023-12-04T02:42:40;1.30;99.90
13982;DHT22;7065;50.880;5.502;2023-12-04T02:45:06;1.30;99.90
13982;DHT22;7065;50.880;5.502;2023-12-04T02:47:32;1.30;99.90
13982;DHT22;7065;50.880;5.502;2023-12-04T02:49:58;1.30;99.90
13982;DHT22;7065;50.880;5.502;2023-12-04T02:52:24;1.40;99.90
13982;DHT22;7065;50.880;5.502;2023-12-04T02:54:50;1.40;99.90
13982;DHT22;7065;50.880;5.502;2023-12-04T02:57:15;1.30;99.90
13982;DHT22;7065;50.880;5.502;2023-12-04T02:59:41;1.30;99.90
13982;DHT22;7065;50.880;5.502;2023-12-04T03:02:07;1.40;99.90
13982;DHT22;7065;50.880;5.502;2023-12-04T03:04:34;1.30;99.90
13982;DHT22;7065;50.880;5.502;2023-12-04T03:07:00;1.40;99.90
13982;DHT22;7065;50.880;5.502;2023-12-04T03:09:26;1.30;99.90
13982;DHT22;7065;50.880;5.502;2023-12-04T03:11:52;1.30;99.90
13982;DHT22;7065;50.880;5.502;2023-12-04T03:14:18;1.30;99.90
13982;DHT22;7065;50.880;5.502;2023-12-04T03:16:43;1.30;99.90
13982;DHT22;7065;50.880;5.502;2023-12-04T03:19:09;1.30;99.90
13982;DHT22;7065;50.880;5.502;2023-12-04T03:21:35;1.30;99.90
13982;DHT22;7065;50.880;5.502;2023-12-04T03:24:01;1.30;99.90
13982;DHT22;7065;50.880;5.502;2023-12-04T03:26:26;1.30;99.90
13982;DHT22;7065;50.880;5.502;2023-12-04T03:28:53;1.30;99.90
13982;DHT22;7065;50.880;5.502;2023-12-04T03:31:20;1.30;99.90
13982;DHT22;7065;50.880;5.502;2023-12-04T03:33:46;1.30;99.90
13982;DHT22;7065;50.880;5.502;2023-12-04T03:36:12;1.30;99.90
13982;DHT22;7065;50.880;5.502;2023-12-04T03:38:37;1.30;99.90
13982;DHT22;7065;50.880;5.502;2023-12-04T03:41:03;1.40;99.90
13982;DHT22;7065;50.880;5.502;2023-12-04T03:43:29;1.40;99.90
13982;DHT22;7065;50.880;5.502;2023-12-04T03:45:55;1.40;99.90
13982;DHT22;7065;50.880;5.502;2023-12-04T03:48:20;1.40;99.90
13982;DHT22;7065;50.880;5.502;2023-12-04T03:50:46;1.40;99.90
13982;DHT22;7065;50.880;5.502;2023-12-04T03:53:12;1.40;99.90
13982;DHT22;7065;50.880;5.502;2023-12-04T03:55:37;1.40;99.90
13982;DHT22;7065;50.880;5.502;2023-12-04T03:58:03;1.40;99.90
13982;DHT22;7065;50.880;5.502;2023-12-04T04:00:29;1.40;99.90
13982;DHT22;7065;50.880;5.502;2023-12-04T04:02:55;1.40;99.90
13982;DHT22;7065;50.880;5.502;2023-12-04T04:05:21;1.40;99.90
13982;DHT22;7065;50.880;5.502;2023-12-04T04:07:46;1.40;99.90
13982;DHT22;7065;50.880;5.502;2023-12-04T04:10:12;1.40;99.90
13982;DHT22;7065;50.880;5.502;2023-12-04T04:12:38;1.40;99.90
13982;DHT22;7065;50.880;5.502;2023-12-04T04:15:05;1.40;99.90
13982;DHT22;7065;50.880;5.502;2023-12-04T04:17:31;1.40;99.90
13982;DHT22;7065;50.880;5.502;2023-12-04T04:19:58;1.40;99.90
13982;DHT22;7065;50.880;5.502;2023-12-04T04:22:24;1.40;99.90
13982;DHT22;7065;50.880;5.502;2023-12-04T04:24:50;1.40;99.90
13982;DHT22;7065;50.880;5.502;2023-12-04T04:27:15;1.40;99.90
13982;DHT22;7065;50.880;5.502;2023-12-04T04:29:41;1.40;99.90
13982;DHT22;7065;50.880;5.502;2023-12-04T04:32:07;1.40;99.90
13982;DHT22;7065;50.880;5.502;2023-12-04T04:34:33;1.40;99.90
13982;DHT22;7065;50.880;5.502;2023-12-04T04:36:58;1.50;99.90
13982;DHT22;7065;50.880;5.502;2023-12-04T04:39:25;1.50;99.90
13982;DHT22;7065;50.880;5.502;2023-12-04T04:41:50;1.50;99.90
13982;DHT22;7065;50.880;5.502;2023-12-04T04:44:16;1.50;99.90
13982;DHT22;7065;50.880;5.502;2023-12-04T04:46:41;1.50;99.90
13982;DHT22;7065;50.880;5.502;2023-12-04T04:49:07;1.60;99.90
13982;DHT22;7065;50.880;5.502;2023-12-04T04:51:33;1.60;99.90
13982;DHT22;7065;50.880;5.502;2023-12-04T04:54:02;1.60;99.90
13982;DHT22;7065;50.880;5.502;2023-12-04T04:56:29;1.70;99.90
13982;DHT22;7065;50.880;5.502;2023-12-04T04:58:55;1.70;99.90
13982;DHT22;7065;50.880;5.502;2023-12-04T05:01:21;1.70;99.90
13982;DHT22;7065;50.880;5.502;2023-12-04T05:03:46;1.70;99.90
13982;DHT22;7065;50.880;5.502;2023-12-04T05:06:12;1.70;99.90
13982;DHT22;7065;50.880;5.502;2023-12-04T05:08:38;1.70;99.90
13982;DHT22;7065;50.880;5.502;2023-12-04T05:11:04;1.70;99.90
13982;DHT22;7065;50.880;5.502;2023-12-04T05:13:29;1.70;99.90
13982;DHT22;7065;50.880;5.502;2023-12-04T05:15:55;1.70;99.90
13982;DHT22;7065;50.880;5.502;2023-12-04T05:18:21;1.70;99.90
13982;DHT22;7065;50.880;5.502;2023-12-04T05:20:47;1.80;99.90
13982;DHT22;7065;50.880;5.502;2023-12-04T05:23:13;1.80;99.90
13982;DHT22;7065;50.880;5.502;2023-12-04T05:25:38;1.70;99.90
13982;DHT22;7065;50.880;5.502;2023-12-04T05:28:04;1.80;99.90
13982;DHT22;7065;50.880;5.502;2023-12-04T05:30:30;1.80;99.90
13982;DHT22;7065;50.880;5.502;2023-12-04T05:32:56;1.80;99.90
13982;DHT22;7065;50.880;5.502;2023-12-04T05:35:22;1.80;99.90
13982;DHT22;7065;50.880;5.502;2023-12-04T05:37:48;1.80;99.90
13982;DHT22;7065;50.880;5.502;2023-12-04T05:40:14;1.80;99.90
13982;DHT22;7065;50.880;5.502;2023-12-04T05:42:40;1.80;99.90
13982;DHT22;7065;50.880;5.502;2023-12-04T05:45:06;1.80;99.90
13982;DHT22;7065;50.880;5.502;2023-12-04T05:47:33;1.70;99.90
13982;DHT22;7065;50.880;5.502;2023-12-04T05:49:59;1.70;99.90
13982;DHT22;7065;50.880;5.502;2023-12-04T05:52:24;1.70;99.90
13982;DHT22;7065;50.880;5.502;2023-12-04T05:54:50;1.80;99.90
13982;DHT22;7065;50.880;5.502;2023-12-04T05:57:16;1.80;99.90
13982;DHT22;7065;50.880;5.502;2023-12-04T05:59:42;1.80;99.90
13982;DHT22;7065;50.880;5.502;2023-12-04T06:02:09;1.80;99.90
13982;DHT22;7065;50.880;5.502;2023-12-04T06:04:35;1.80;99.90
13982;DHT22;7065;50.880;5.502;2023-12-04T06:07:00;1.80;99.90
13982;DHT22;7065;50.880;5.502;2023-12-04T06:09:26;1.80;99.90
13982;DHT22;7065;50.880;5.502;2023-12-04T06:11:52;1.80;99.90
13982;DHT22;7065;50.880;5.502;2023-12-04T06:14:17;1.80;99.90
13982;DHT22;7065;50.880;5.502;2023-12-04T06:16:43;1.90;99.90
13982;DHT22;7065;50.880;5.502;2023-12-04T06:19:09;1.90;99.90
13982;DHT22;7065;50.880;5.502;2023-12-04T06:21:34;1.90;99.90
13982;DHT22;7065;50.880;5.502;2023-12-04T06:24:00;1.90;99.90
13982;DHT22;7065;50.880;5.502;2023-12-04T06:26:26;1.90;99.90
13982;DHT22;7065;50.880;5.502;2023-12-04T06:28:52;1.80;99.90
13982;DHT22;7065;50.880;5.502;2023-12-04T06:31:18;1.90;99.90
13982;DHT22;7065;50.880;5.502;2023-12-04T06:33:44;2.00;99.90
13982;DHT22;7065;50.880;5.502;2023-12-04T06:36:12;2.10;99.90
13982;DHT22;7065;50.880;5.502;2023-12-04T06:38:42;2.10;99.90
13982;DHT22;7065;50.880;5.502;2023-12-04T06:41:12;2.10;99.90
13982;DHT22;7065;50.880;5.502;2023-12-04T06:43:41;2.10;99.90
13982;DHT22;7065;50.880;5.502;2023-12-04T06:46:10;2.10;99.90
13982;DHT22;7065;50.880;5.502;2023-12-04T06:48:41;2.20;99.90
13982;DHT22;7065;50.880;5.502;2023-12-04T06:51:11;2.20;99.90
13982;DHT22;7065;50.880;5.502;2023-12-04T06:53:39;2.30;99.90
13982;DHT22;7065;50.880;5.502;2023-12-04T06:56:09;2.50;99.90
13982;DHT22;7065;50.880;5.502;2023-12-04T06:58:35;2.50;99.90
13982;DHT22;7065;50.880;5.502;2023-12-04T07:01:01;2.50;99.90
13982;DHT22;7065;50.880;5.502;2023-12-04T07:03:27;2.60;99.90
13982;DHT22;7065;50.880;5.502;2023-12-04T07:05:52;2.60;99.90
13982;DHT22;7065;50.880;5.502;2023-12-04T07:08:18;2.60;99.90
13982;DHT22;7065;50.880;5.502;2023-12-04T07:10:44;2.60;99.90
13982;DHT22;7065;50.880;5.502;2023-12-04T07:13:09;2.60;99.90
13982;DHT22;7065;50.880;5.502;2023-12-04T07:15:35;2.60;99.90
13982;DHT22;7065;50.880;5.502;2023-12-04T07:18:01;2.60;99.90
13982;DHT22;7065;50.880;5.502;2023-12-04T07:20:26;2.70;99.90
13982;DHT22;7065;50.880;5.502;2023-12-04T07:22:52;2.70;99.90
13982;DHT22;7065;50.880;5.502;2023-12-04T07:25:18;2.70;99.90
13982;DHT22;7065;50.880;5.502;2023-12-04T07:27:43;2.70;99.90
13982;DHT22;7065;50.880;5.502;2023-12-04T07:30:09;2.70;99.90
13982;DHT22;7065;50.880;5.502;2023-12-04T07:32:37;2.70;99.90
13982;DHT22;7065;50.880;5.502;2023-12-04T07:35:04;2.80;99.90
13982;DHT22;7065;50.880;5.502;2023-12-04T07:37:30;2.70;99.90
13982;DHT22;7065;50.880;5.502;2023-12-04T07:39:59;2.70;99.90
13982;DHT22;7065;50.880;5.502;2023-12-04T07:42:28;2.70;99.90
13982;DHT22;7065;50.880;5.502;2023-12-04T07:44:57;2.70;99.90
13982;DHT22;7065;50.880;5.502;2023-12-04T07:47:26;2.70;99.90
13982;DHT22;7065;50.880;5.502;2023-12-04T07:49:51;2.70;99.90
13982;DHT22;7065;50.880;5.502;2023-12-04T07:52:17;2.70;99.90
13982;DHT22;7065;50.880;5.502;2023-12-04T07:54:44;2.70;99.90
13982;DHT22;7065;50.880;5.502;2023-12-04T07:57:09;2.70;99.90
13982;DHT22;7065;50.880;5.502;2023-12-04T07:59:35;2.70;99.90
13982;DHT22;7065;50.880;5.502;2023-12-04T08:02:00;2.70;99.90
13982;DHT22;7065;50.880;5.502;2023-12-04T08:04:26;2.70;99.90
13982;DHT22;7065;50.880;5.502;2023-12-04T08:06:52;2.70;99.90
13982;DHT22;7065;50.880;5.502;2023-12-04T08:09:18;2.70;99.90
13982;DHT22;7065;50.880;5.502;2023-12-04T08:11:45;2.70;99.90
13982;DHT22;7065;50.880;5.502;2023-12-04T08:14:10;2.70;99.90
13982;DHT22;7065;50.880;5.502;2023-12-04T08:16:36;2.70;99.90
13982;DHT22;7065;50.880;5.502;2023-12-04T08:19:02;2.70;99.90
13982;DHT22;7065;50.880;5.502;2023-12-04T08:21:27;2.70;99.90
13982;DHT22;7065;50.880;5.502;2023-12-04T08:23:53;2.70;99.90
13982;DHT22;7065;50.880;5.502;2023-12-04T08:26:23;2.70;99.90
13982;DHT22;7065;50.880;5.502;2023-12-04T08:28:49;2.70;99.90
13982;DHT22;7065;50.880;5.502;2023-12-04T08:31:16;2.70;99.90
13982;DHT22;7065;50.880;5.502;2023-12-04T08:33:42;2.70;99.90
13982;DHT22;7065;50.880;5.502;2023-12-04T08:36:08;2.70;99.90
13982;DHT22;7065;50.880;5.502;2023-12-04T08:38:34;2.80;99.90
13982;DHT22;7065;50.880;5.502;2023-12-04T08:41:00;2.80;99.90
13982;DHT22;7065;50.880;5.502;2023-12-04T08:43:26;2.80;99.90
13982;DHT22;7065;50.880;5.502;2023-12-04T08:45:51;2.80;99.90
13982;DHT22;7065;50.880;5.502;2023-12-04T08:48:17;2.80;99.90
13982;DHT22;7065;50.880;5.502;2023-12-04T08:50:43;2.90;99.90
13982;DHT22;7065;50.880;5.502;2023-12-04T08:53:08;2.90;99.90
13982;DHT22;7065;50.880;5.502;2023-12-04T08:55:34;2.90;99.90
13982;DHT22;7065;50.880;5.502;2023-12-04T08:58:00;2.90;99.90
13982;DHT22;7065;50.880;5.502;2023-12-04T09:00:26;2.90;99.90
13982;DHT22;7065;50.880;5.502;2023-12-04T09:02:52;2.90;99.90
13982;DHT22;7065;50.880;5.502;2023-12-04T09:05:19;2.90;99.90
13982;DHT22;7065;50.880;5.502;2023-12-04T09:07:44;2.90;99.90
13982;DHT22;7065;50.880;5.502;2023-12-04T09:10:10;2.90;99.90
13982;DHT22;7065;50.880;5.502;2023-12-04T09:12:36;2.90;99.90
13982;DHT22;7065;50.880;5.502;2023-12-04T09:15:04;2.90;99.90
13982;DHT22;7065;50.880;5.502;2023-12-04T09:17:30;3.00;99.90
13982;DHT22;7065;50.880;5.502;2023-12-04T09:19:55;3.00;99.90
13982;DHT22;7065;50.880;5.502;2023-12-04T09:22:23;3.00;99.90
13982;DHT22;7065;50.880;5.502;2023-12-04T09:24:49;3.00;99.90
13982;DHT22;7065;50.880;5.502;2023-12-04T09:27:15;3.00;99.90
13982;DHT22;7065;50.880;5.502;2023-12-04T09:29:42;3.00;99.90
13982;DHT22;7065;50.880;5.502;2023-12-04T09:32:08;3.10;99.90
13982;DHT22;7065;50.880;5.502;2023-12-04T09:34:35;3.10;99.90
13982;DHT22;7065;50.880;5.502;2023-12-04T09:37:01;3.20;99.90
13982;DHT22;7065;50.880;5.502;2023-12-04T09:39:28;3.20;99.90
13982;DHT22;7065;50.880;5.502;2023-12-04T09:41:54;3.20;99.90
13982;DHT22;7065;50.880;5.502;2023-12-04T09:44:22;3.30;99.90
13982;DHT22;7065;50.880;5.502;2023-12-04T09:46:51;3.40;99.90
13982;DHT22;7065;50.880;5.502;2023-12-04T09:49:17;3.40;99.90
13982;DHT22;7065;50.880;5.502;2023-12-04T09:51:44;3.40;99.90
13982;DHT22;7065;50.880;5.502;2023-12-04T09:54:10;3.40;99.90
13982;DHT22;7065;50.880;5.502;2023-12-04T09:56:36;3.40;99.90
13982;DHT22;7065;50.880;5.502;2023-12-04T09:59:05;3.50;99.90
13982;DHT22;7065;50.880;5.502;2023-12-04T10:01:32;3.50;99.90
13982;DHT22;7065;50.880;5.502;2023-12-04T10:03:58;3.60;99.90
13982;DHT22;7065;50.880;5.502;2023-12-04T10:06:28;3.60;99.90
13982;DHT22;7065;50.880;5.502;2023-12-04T10:08:56;3.60;99.90
13982;DHT22;7065;50.880;5.502;2023-12-04T10:11:25;3.60;99.90
13982;DHT22;7065;50.880;5.502;2023-12-04T10:13:52;3.60;99.90
13982;DHT22;7065;50.880;5.502;2023-12-04T10:16:34;3.60;99.90
13982;DHT22;7065;50.880;5.502;2023-12-04T10:19:28;3.60;99.90
13982;DHT22;7065;50.880;5.502;2023-12-04T10:21:58;3.60;99.90
13982;DHT22;7065;50.880;5.502;2023-12-04T10:24:31;3.60;99.90
13982;DHT22;7065;50.880;5.502;2023-12-04T10:26:58;3.60;99.90
13982;DHT22;7065;50.880;5.502;2023-12-04T10:29:27;3.50;99.90
13982;DHT22;7065;50.880;5.502;2023-12-04T10:31:54;3.50;99.90
13982;DHT22;7065;50.880;5.502;2023-12-04T10:34:21;3.40;99.90
13982;DHT22;7065;50.880;5.502;2023-12-04T10:36:51;3.40;99.90
13982;DHT22;7065;50.880;5.502;2023-12-04T10:39:17;3.40;99.90
13982;DHT22;7065;50.880;5.502;2023-12-04T10:41:44;3.40;99.90
13982;DHT22;7065;50.880;5.502;2023-12-04T10:44:12;3.30;99.90
13982;DHT22;7065;50.880;5.502;2023-12-04T10:46:41;3.30;99.90
13982;DHT22;7065;50.880;5.502;2023-12-04T10:49:09;3.40;99.90
13982;DHT22;7065;50.880;5.502;2023-12-04T10:51:35;3.30;99.90
13982;DHT22;7065;50.880;5.502;2023-12-04T10:54:01;3.20;99.90
13982;DHT22;7065;50.880;5.502;2023-12-04T10:56:35;3.20;99.90
13982;DHT22;7065;50.880;5.502;2023-12-04T10:59:10;3.20;99.90
13982;DHT22;7065;50.880;5.502;2023-12-04T11:01:38;3.20;99.90
13982;DHT22;7065;50.880;5.502;2023-12-04T11:04:07;3.20;99.90
13982;DHT22;7065;50.880;5.502;2023-12-04T11:06:35;3.20;99.90
13982;DHT22;7065;50.880;5.502;2023-12-04T11:09:02;3.20;99.90
13982;DHT22;7065;50.880;5.502;2023-12-04T11:11:33;3.20;99.90
13982;DHT22;7065;50.880;5.502;2023-12-04T11:14:01;3.20;99.90
13982;DHT22;7065;50.880;5.502;2023-12-04T11:16:46;3.20;99.90
13982;DHT22;7065;50.880;5.502;2023-12-04T11:19:39;3.20;99.90
13982;DHT22;7065;50.880;5.502;2023-12-04T11:22:09;3.30;99.90
13982;DHT22;7065;50.880;5.502;2023-12-04T11:24:36;3.30;99.90
13982;DHT22;7065;50.880;5.502;2023-12-04T11:27:03;3.50;99.90
13982;DHT22;7065;50.880;5.502;2023-12-04T11:29:30;3.60;99.90
13982;DHT22;7065;50.880;5.502;2023-12-04T11:31:57;3.80;99.90
13982;DHT22;7065;50.880;5.502;2023-12-04T11:34:24;3.90;99.90
13982;DHT22;7065;50.880;5.502;2023-12-04T11:36:51;4.10;99.90
13982;DHT22;7065;50.880;5.502;2023-12-04T11:39:18;4.30;99.90
13982;DHT22;7065;50.880;5.502;2023-12-04T11:41:45;4.40;99.90
13982;DHT22;7065;50.880;5.502;2023-12-04T11:44:14;4.50;99.90
13982;DHT22;7065;50.880;5.502;2023-12-04T11:46:55;4.50;99.90
13982;DHT22;7065;50.880;5.502;2023-12-04T11:49:27;4.50;99.90
13982;DHT22;7065;50.880;5.502;2023-12-04T11:51:59;4.60;99.90
13982;DHT22;7065;50.880;5.502;2023-12-04T11:54:27;4.60;99.90
13982;DHT22;7065;50.880;5.502;2023-12-04T11:57:19;4.70;99.90
13982;DHT22;7065;50.880;5.502;2023-12-04T11:59:47;4.70;99.90
13982;DHT22;7065;50.880;5.502;2023-12-04T12:02:15;4.80;99.90
13982;DHT22;7065;50.880;5.502;2023-12-04T12:04:41;4.80;99.90
13982;DHT22;7065;50.880;5.502;2023-12-04T12:07:07;4.80;99.90
13982;DHT22;7065;50.880;5.502;2023-12-04T12:09:33;4.90;99.90
13982;DHT22;7065;50.880;5.502;2023-12-04T12:12:03;5.00;99.90
13982;DHT22;7065;50.880;5.502;2023-12-04T12:14:30;5.20;99.90
13982;DHT22;7065;50.880;5.502;2023-12-04T12:16:57;5.20;99.90
13982;DHT22;7065;50.880;5.502;2023-12-04T12:19:24;5.30;99.90
13982;DHT22;7065;50.880;5.502;2023-12-04T12:21:50;5.20;99.90
13982;DHT22;7065;50.880;5.502;2023-12-04T12:24:17;5.20;99.90
13982;DHT22;7065;50.880;5.502;2023-12-04T12:26:44;5.10;99.90
13982;DHT22;7065;50.880;5.502;2023-12-04T12:29:11;5.00;99.90
13982;DHT22;7065;50.880;5.502;2023-12-04T12:31:37;5.00;99.90
13982;DHT22;7065;50.880;5.502;2023-12-04T12:34:02;4.90;99.90
13982;DHT22;7065;50.880;5.502;2023-12-04T12:36:29;4.90;99.90
13982;DHT22;7065;50.880;5.502;2023-12-04T12:38:55;4.90;99.90
13982;DHT22;7065;50.880;5.502;2023-12-04T12:41:21;4.90;99.90
13982;DHT22;7065;50.880;5.502;2023-12-04T12:43:51;4.90;99.90
13982;DHT22;7065;50.880;5.502;2023-12-04T12:46:17;5.00;99.90
13982;DHT22;7065;50.880;5.502;2023-12-04T12:48:44;5.00;99.90
13982;DHT22;7065;50.880;5.502;2023-12-04T12:51:10;5.00;99.90
13982;DHT22;7065;50.880;5.502;2023-12-04T12:53:36;4.90;99.90
13982;DHT22;7065;50.880;5.502;2023-12-04T12:56:03;4.80;99.90
13982;DHT22;7065;50.880;5.502;2023-12-04T12:58:29;4.80;99.90
13982;DHT22;7065;50.880;5.502;2023-12-04T13:00:55;4.80;99.90
13982;DHT22;7065;50.880;5.502;2023-12-04T13:03:21;4.80;99.90
13982;DHT22;7065;50.880;5.502;2023-12-04T13:05:47;4.80;99.90
13982;DHT22;7065;50.880;5.502;2023-12-04T13:08:13;4.80;99.90
13982;DHT22;7065;50.880;5.502;2023-12-04T13:10:40;4.80;99.90
13982;DHT22;7065;50.880;5.502;2023-12-04T13:13:13;4.80;99.90
13982;DHT22;7065;50.880;5.502;2023-12-04T13:15:40;4.80;99.90
13982;DHT22;7065;50.880;5.502;2023-12-04T13:18:07;4.80;99.90
13982;DHT22;7065;50.880;5.502;2023-12-04T13:20:32;4.80;99.90
13982;DHT22;7065;50.880;5.502;2023-12-04T13:23:00;4.80;99.90
13982;DHT22;7065;50.880;5.502;2023-12-04T13:25:26;4.80;99.90
13982;DHT22;7065;50.880;5.502;2023-12-04T13:27:53;4.80;99.90
13982;DHT22;7065;50.880;5.502;2023-12-04T13:30:19;4.70;99.90
13982;DHT22;7065;50.880;5.502;2023-12-04T13:32:45;4.70;99.90
13982;DHT22;7065;50.880;5.502;2023-12-04T13:35:11;4.60;99.90
13982;DHT22;7065;50.880;5.502;2023-12-04T13:37:37;4.60;99.90
13982;DHT22;7065;50.880;5.502;2023-12-04T13:40:05;4.60;99.90
13982;DHT22;7065;50.880;5.502;2023-12-04T13:42:38;4.60;99.90
13982;DHT22;7065;50.880;5.502;2023-12-04T13:45:22;4.50;99.90
13982;DHT22;7065;50.880;5.502;2023-12-04T13:47:51;4.40;99.90
13982;DHT22;7065;50.880;5.502;2023-12-04T13:50:18;4.40;99.90
13982;DHT22;7065;50.880;5.502;2023-12-04T13:52:44;4.40;99.90
13982;DHT22;7065;50.880;5.502;2023-12-04T13:55:10;4.30;99.90
13982;DHT22;7065;50.880;5.502;2023-12-04T13:57:46;4.30;99.90
13982;DHT22;7065;50.880;5.502;2023-12-04T14:00:35;4.30;99.90
13982;DHT22;7065;50.880;5.502;2023-12-04T14:03:01;4.30;99.90
13982;DHT22;7065;50.880;5.502;2023-12-04T14:05:30;4.30;99.90
13982;DHT22;7065;50.880;5.502;2023-12-04T14:07:56;4.30;99.90
13982;DHT22;7065;50.880;5.502;2023-12-04T14:10:24;4.30;99.90
13982;DHT22;7065;50.880;5.502;2023-12-04T14:12:51;4.30;99.90
13982;DHT22;7065;50.880;5.502;2023-12-04T14:15:17;4.30;99.90
13982;DHT22;7065;50.880;5.502;2023-12-04T14:17:43;4.30;99.90
13982;DHT22;7065;50.880;5.502;2023-12-04T14:20:09;4.30;99.90
13982;DHT22;7065;50.880;5.502;2023-12-04T14:22:42;4.30;99.90
13982;DHT22;7065;50.880;5.502;2023-12-04T14:25:08;4.20;99.90
13982;DHT22;7065;50.880;5.502;2023-12-04T14:27:34;4.20;99.90
13982;DHT22;7065;50.880;5.502;2023-12-04T14:30:01;4.20;99.90
13982;DHT22;7065;50.880;5.502;2023-12-04T14:32:27;4.20;99.90
13982;DHT22;7065;50.880;5.502;2023-12-04T14:34:53;4.10;99.90
13982;DHT22;7065;50.880;5.502;2023-12-04T14:37:19;4.10;99.90
13982;DHT22;7065;50.880;5.502;2023-12-04T14:39:45;4.10;99.90
13982;DHT22;7065;50.880;5.502;2023-12-04T14:42:12;4.10;99.90
13982;DHT22;7065;50.880;5.502;2023-12-04T14:44:37;4.00;99.90
13982;DHT22;7065;50.880;5.502;2023-12-04T14:47:04;4.00;99.90
13982;DHT22;7065;50.880;5.502;2023-12-04T14:49:30;4.00;99.90
13982;DHT22;7065;50.880;5.502;2023-12-04T14:51:57;4.00;99.90
13982;DHT22;7065;50.880;5.502;2023-12-04T14:54:22;4.00;99.90
13982;DHT22;7065;50.880;5.502;2023-12-04T14:57:02;4.00;99.90
13982;DHT22;7065;50.880;5.502;2023-12-04T14:59:50;4.00;99.90
13982;DHT22;7065;50.880;5.502;2023-12-04T15:02:35;4.00;99.90
13982;DHT22;7065;50.880;5.502;2023-12-04T15:05:20;4.00;99.90
13982;DHT22;7065;50.880;5.502;2023-12-04T15:08:17;4.00;99.90
13982;DHT22;7065;50.880;5.502;2023-12-04T15:10:48;3.90;99.90
13982;DHT22;7065;50.880;5.502;2023-12-04T15:13:33;3.90;99.90
13982;DHT22;7065;50.880;5.502;2023-12-04T15:15:58;3.90;99.90
13982;DHT22;7065;50.880;5.502;2023-12-04T15:18:24;3.90;99.90
13982;DHT22;7065;50.880;5.502;2023-12-04T15:21:03;3.90;99.90
13982;DHT22;7065;50.880;5.502;2023-12-04T15:23:29;3.90;99.90
13982;DHT22;7065;50.880;5.502;2023-12-04T15:25:55;3.90;99.90
13982;DHT22;7065;50.880;5.502;2023-12-04T15:28:26;3.90;99.90
13982;DHT22;7065;50.880;5.502;2023-12-04T15:30:52;3.90;99.90
13982;DHT22;7065;50.880;5.502;2023-12-04T15:33:18;3.90;99.90
13982;DHT22;7065;50.880;5.502;2023-12-04T15:35:46;3.80;99.90
13982;DHT22;7065;50.880;5.502;2023-12-04T15:38:11;3.80;99.90
13982;DHT22;7065;50.880;5.502;2023-12-04T15:40:37;3.80;99.90
13982;DHT22;7065;50.880;5.502;2023-12-04T15:43:03;3.80;99.90
13982;DHT22;7065;50.880;5.502;2023-12-04T15:45:28;3.80;99.90
13982;DHT22;7065;50.880;5.502;2023-12-04T15:47:54;3.80;99.90
13982;DHT22;7065;50.880;5.502;2023-12-04T15:50:20;3.80;99.90
13982;DHT22;7065;50.880;5.502;2023-12-04T15:52:48;3.90;99.90
13982;DHT22;7065;50.880;5.502;2023-12-04T15:55:14;3.90;99.90
13982;DHT22;7065;50.880;5.502;2023-12-04T15:57:39;3.90;99.90
13982;DHT22;7065;50.880;5.502;2023-12-04T16:00:06;3.90;99.90
13982;DHT22;7065;50.880;5.502;2023-12-04T16:02:41;3.90;99.90